createdAt,value
2018-09-16T00:00:15.510Z,99.90
2018-09-16T00:02:44.145Z,99.90
2018-09-16T00:05:12.938Z,99.90
2018-09-16T00:07:41.851Z,99.90
2018-09-16T00:10:10.629Z,99.90
2018-09-16T00:12:39.454Z,99.90
2018-09-16T00:15:08.270Z,99.90
2018-09-16T00:17:37.177Z,99.90
2018-09-16T00:20:06.093Z,99.90
2018-09-16T00:22:34.845Z,99.90
2018-09-16T00:25:03.578Z,99.90
2018-09-16T00:27:32.212Z,99.90
2018-09-16T00:30:00.880Z,99.90
2018-09-16T00:32:34.952Z,99.90
2018-09-16T00:35:03.671Z,99.90
2018-09-16T00:37:32.357Z,99.90
2018-09-16T00:40:01.027Z,99.90
2018-09-16T00:42:29.751Z,99.90
2018-09-16T00:44:58.599Z,99.90
2018-09-16T00:47:27.317Z,99.90
2018-09-16T00:49:55.931Z,99.90
2018-09-16T00:52:24.684Z,99.90
2018-09-16T00:54:53.315Z,99.90
2018-09-16T00:57:22.511Z,99.90
2018-09-16T00:59:51.173Z,99.90
2018-09-16T01:02:19.778Z,99.90
2018-09-16T01:04:48.385Z,99.90
2018-09-16T01:07:17.487Z,99.90
2018-09-16T01:09:46.069Z,99.90
2018-09-16T01:12:14.861Z,99.90
2018-09-16T01:14:43.524Z,99.90
2018-09-16T01:17:12.307Z,99.90
2018-09-16T01:19:42.111Z,99.90
2018-09-16T01:22:10.913Z,99.90
2018-09-16T01:24:39.633Z,99.90
2018-09-16T01:27:08.434Z,99.90
2018-09-16T01:29:37.173Z,99.90
2018-09-16T01:32:06.217Z,99.90
2018-09-16T01:34:35.089Z,99.90
2018-09-16T01:37:08.924Z,99.90
2018-09-16T01:39:37.750Z,99.90
2018-09-16T01:42:06.258Z,99.90
2018-09-16T01:44:35.108Z,99.90
2018-09-16T01:47:03.875Z,99.90
2018-09-16T01:49:32.555Z,99.90
2018-09-16T01:52:01.206Z,99.90
2018-09-16T01:54:29.877Z,99.90
2018-09-16T01:56:59.337Z,99.90
2018-09-16T01:59:28.075Z,99.90
2018-09-16T02:01:56.688Z,99.90
2018-09-16T02:04:25.311Z,99.90
2018-09-16T02:06:53.904Z,99.90
2018-09-16T02:09:22.506Z,99.90
2018-09-16T02:11:51.118Z,99.90
2018-09-16T02:14:19.693Z,99.90
2018-09-16T02:16:48.285Z,99.90
2018-09-16T02:19:16.878Z,99.90
2018-09-16T02:21:46.124Z,99.90
2018-09-16T02:24:14.726Z,99.90
2018-09-16T02:26:43.466Z,99.90
2018-09-16T02:29:12.164Z,99.90
2018-09-16T02:31:40.981Z,99.90
2018-09-16T02:34:09.775Z,99.90
2018-09-16T02:36:38.609Z,99.90
2018-09-16T02:39:08.411Z,99.90
2018-09-16T02:41:37.270Z,99.90
2018-09-16T02:44:06.417Z,99.90
2018-09-16T02:46:35.323Z,99.90
2018-09-16T02:49:04.114Z,99.90
2018-09-16T02:51:32.753Z,99.90
2018-09-16T02:54:01.422Z,99.90
2018-09-16T02:56:30.127Z,99.90
2018-09-16T02:58:59.000Z,99.90
2018-09-16T03:01:27.752Z,99.90
2018-09-16T03:03:56.398Z,99.90
2018-09-16T03:06:32.039Z,99.90
2018-09-16T03:09:01.272Z,99.90
2018-09-16T03:11:30.393Z,99.90
2018-09-16T03:13:59.122Z,99.90
2018-09-16T03:16:27.816Z,99.90
2018-09-16T03:18:56.581Z,99.90
2018-09-16T03:21:25.165Z,99.90
2018-09-16T03:23:53.762Z,99.90
2018-09-16T03:26:22.338Z,99.90
2018-09-16T03:28:50.931Z,99.90
2018-09-16T03:31:19.505Z,99.90
2018-09-16T03:33:48.298Z,99.90
2018-09-16T03:36:16.864Z,99.90
2018-09-16T03:38:45.525Z,99.90
2018-09-16T03:41:14.171Z,99.90
2018-09-16T03:43:42.845Z,99.90
2018-09-16T03:46:11.728Z,99.90
2018-09-16T03:48:40.519Z,99.90
2018-09-16T03:51:09.397Z,99.90
2018-09-16T03:53:38.111Z,99.90
2018-09-16T03:56:07.007Z,99.90
2018-09-16T03:58:35.768Z,99.90
2018-09-16T04:01:04.843Z,99.90
2018-09-16T04:03:33.970Z,99.90
2018-09-16T04:06:02.702Z,99.90
2018-09-16T04:08:31.346Z,99.90
2018-09-16T04:11:00.019Z,99.90
2018-09-16T04:13:28.717Z,99.90
2018-09-16T04:15:57.444Z,99.90
2018-09-16T04:18:26.084Z,99.90
2018-09-16T04:20:54.773Z,99.90
2018-09-16T04:23:23.506Z,99.90
2018-09-16T04:25:52.077Z,99.90
2018-09-16T04:28:20.674Z,99.90
2018-09-16T04:30:49.409Z,99.90
2018-09-16T04:33:18.055Z,99.90
2018-09-16T04:35:46.606Z,99.90
2018-09-16T04:38:15.377Z,99.90
2018-09-16T04:40:44.175Z,99.90
2018-09-16T04:43:13.054Z,99.90
2018-09-16T04:45:41.927Z,99.90
2018-09-16T04:48:11.674Z,99.90
2018-09-16T04:50:41.459Z,99.90
2018-09-16T04:53:10.271Z,99.90
2018-09-16T04:55:39.214Z,99.90
2018-09-16T04:58:07.878Z,99.90
2018-09-16T05:00:36.513Z,99.90
2018-09-16T05:03:05.231Z,99.90
2018-09-16T05:05:34.779Z,99.90
2018-09-16T05:08:04.917Z,99.90
2018-09-16T05:10:34.653Z,99.90
2018-09-16T05:13:03.335Z,99.90
2018-09-16T05:15:32.174Z,99.90
2018-09-16T05:18:01.149Z,99.90
2018-09-16T05:20:30.722Z,99.90
2018-09-16T05:22:59.671Z,99.90
2018-09-16T05:25:28.392Z,99.90
2018-09-16T05:27:57.028Z,99.90
2018-09-16T05:30:25.755Z,99.90
2018-09-16T05:32:55.850Z,99.90
2018-09-16T05:35:24.565Z,99.90
2018-09-16T05:37:53.247Z,99.90
2018-09-16T05:40:21.966Z,99.90
2018-09-16T05:42:50.599Z,99.90
2018-09-16T05:45:19.299Z,99.90
2018-09-16T05:47:47.945Z,99.90
2018-09-16T05:50:16.592Z,99.90
2018-09-16T05:52:45.284Z,99.90
2018-09-16T05:55:13.832Z,99.90
2018-09-16T05:57:43.113Z,99.90
2018-09-16T06:00:12.231Z,99.90
2018-09-16T06:02:40.797Z,99.90
2018-09-16T06:05:10.184Z,99.90
2018-09-16T06:07:38.911Z,99.90
2018-09-16T06:10:07.826Z,99.90
2018-09-16T06:12:36.888Z,99.90
2018-09-16T06:15:06.154Z,99.90
2018-09-16T06:17:35.318Z,99.90
2018-09-16T06:20:04.395Z,99.90
2018-09-16T06:22:33.598Z,99.90
2018-09-16T06:25:02.655Z,99.90
2018-09-16T06:27:32.973Z,99.90
2018-09-16T06:30:02.169Z,99.90
2018-09-16T06:32:31.839Z,99.90
2018-09-16T06:35:01.449Z,99.90
2018-09-16T06:37:30.551Z,99.90
2018-09-16T06:40:00.374Z,99.90
2018-09-16T06:42:30.410Z,99.90
2018-09-16T06:45:00.100Z,99.90
2018-09-16T06:47:29.307Z,99.90
2018-09-16T06:49:58.130Z,99.90
2018-09-16T06:52:26.943Z,99.90
2018-09-16T06:54:55.522Z,99.90
2018-09-16T06:57:24.157Z,99.90
2018-09-16T06:59:53.207Z,99.90
2018-09-16T07:02:21.808Z,99.90
2018-09-16T07:04:50.405Z,99.90
2018-09-16T07:07:19.070Z,99.90
2018-09-16T07:09:47.675Z,99.90
2018-09-16T07:12:16.293Z,99.90
2018-09-16T07:14:44.869Z,99.90
2018-09-16T07:17:13.486Z,99.90
2018-09-16T07:19:42.127Z,99.90
2018-09-16T07:22:11.161Z,99.90
2018-09-16T07:24:40.072Z,99.90
2018-09-16T07:27:09.007Z,99.90
2018-09-16T07:29:38.091Z,99.90
2018-09-16T07:32:07.244Z,99.90
2018-09-16T07:34:36.422Z,99.90
2018-09-16T07:37:05.731Z,99.90
2018-09-16T07:39:34.914Z,99.90
2018-09-16T07:42:04.293Z,99.90
2018-09-16T07:44:33.662Z,99.90
2018-09-16T07:47:02.963Z,99.90
2018-09-16T07:49:32.332Z,99.90
2018-09-16T07:52:01.791Z,99.90
2018-09-16T07:54:31.596Z,99.90
2018-09-16T07:57:02.241Z,99.90
2018-09-16T07:59:33.134Z,99.90
2018-09-16T08:02:02.397Z,99.90
2018-09-16T08:04:31.928Z,99.90
2018-09-16T08:07:01.398Z,99.90
2018-09-16T08:09:30.944Z,99.90
2018-09-16T08:12:00.638Z,99.90
2018-09-16T08:14:30.465Z,99.90
2018-09-16T08:16:59.686Z,99.90
2018-09-16T08:19:29.008Z,99.90
2018-09-16T08:21:57.891Z,99.90
2018-09-16T08:24:26.634Z,99.90
2018-09-16T08:26:55.247Z,99.90
2018-09-16T08:29:24.372Z,99.90
2018-09-16T08:31:53.467Z,99.90
2018-09-16T08:34:22.160Z,99.90
2018-09-16T08:36:53.885Z,99.90
2018-09-16T08:39:26.866Z,99.90
2018-09-16T08:41:55.469Z,99.90
2018-09-16T08:44:24.080Z,99.90
2018-09-16T08:46:53.117Z,99.90
2018-09-16T08:49:21.728Z,99.90
2018-09-16T08:51:51.699Z,99.90
2018-09-16T08:54:20.316Z,99.90
2018-09-16T08:56:49.048Z,99.90
2018-09-16T08:59:17.656Z,99.90
2018-09-16T09:01:46.319Z,99.90
2018-09-16T09:04:14.950Z,99.90
2018-09-16T09:06:43.597Z,99.90
2018-09-16T09:09:12.941Z,99.90
2018-09-16T09:11:42.376Z,99.90
2018-09-16T09:14:11.375Z,99.90
2018-09-16T09:16:40.011Z,99.90
2018-09-16T09:19:08.716Z,99.90
2018-09-16T09:21:37.470Z,99.90
2018-09-16T09:24:05.962Z,99.90
2018-09-16T09:26:34.797Z,99.90
2018-09-16T09:29:03.758Z,99.90
2018-09-16T09:31:33.287Z,99.90
2018-09-16T09:34:02.142Z,99.90
2018-09-16T09:36:31.074Z,99.90
2018-09-16T09:38:59.987Z,99.90
2018-09-16T09:41:28.814Z,99.90
2018-09-16T09:43:57.905Z,99.90
2018-09-16T09:46:28.670Z,99.90
2018-09-16T10:03:00.324Z,99.90
2018-09-16T10:05:29.146Z,99.90
2018-09-16T10:07:57.950Z,99.90
2018-09-16T10:10:26.650Z,99.90
2018-09-16T10:12:55.334Z,99.90
2018-09-16T10:15:23.997Z,99.90
2018-09-16T10:17:52.694Z,99.90
2018-09-16T10:20:21.309Z,99.90
2018-09-16T10:22:49.924Z,99.90
2018-09-16T10:25:18.638Z,99.90
2018-09-16T10:27:47.243Z,99.90
2018-09-16T10:30:15.857Z,99.90
2018-09-16T10:32:44.451Z,99.90
2018-09-16T10:35:13.088Z,99.90
2018-09-16T10:37:41.695Z,99.90
2018-09-16T10:40:10.405Z,99.90
2018-09-16T10:42:39.021Z,99.90
2018-09-16T10:45:07.711Z,99.90
2018-09-16T10:47:36.451Z,99.90
2018-09-16T10:50:05.185Z,99.90
2018-09-16T10:52:33.883Z,98.30
2018-09-16T10:55:02.523Z,98.80
2018-09-16T10:57:31.303Z,97.80
2018-09-16T11:00:00.044Z,99.90
2018-09-16T11:02:29.388Z,98.40
2018-09-16T11:04:58.001Z,96.10
2018-09-16T11:07:26.673Z,97.90
2018-09-16T11:09:55.351Z,98.40
2018-09-16T11:12:24.131Z,96.60
2018-09-16T11:14:52.787Z,95.30
2018-09-16T11:17:21.401Z,97.10
2018-09-16T11:19:50.083Z,94.80
2018-09-16T11:22:18.653Z,95.20
2018-09-16T11:24:47.443Z,94.80
2018-09-16T11:27:16.063Z,94.70
2018-09-16T11:29:44.649Z,93.90
2018-09-16T11:32:13.360Z,94.50
2018-09-16T11:34:42.031Z,93.90
2018-09-16T11:37:10.658Z,93.70
2018-09-16T11:39:39.314Z,94.10
2018-09-16T11:42:07.933Z,91.80
2018-09-16T11:44:36.558Z,93.00
2018-09-16T11:47:05.194Z,94.80
2018-09-16T11:49:33.842Z,94.00
2018-09-16T11:52:02.515Z,93.70
2018-09-16T11:54:31.189Z,93.30
2018-09-16T11:57:00.064Z,91.40
2018-09-16T11:59:28.718Z,93.00
2018-09-16T12:01:57.462Z,93.00
2018-09-16T12:04:26.148Z,91.70
2018-09-16T12:06:54.790Z,93.40
2018-09-16T12:09:23.418Z,91.50
2018-09-16T12:11:52.968Z,90.00
2018-09-16T12:14:21.619Z,91.80
2018-09-16T12:22:36.230Z,90.30
2018-09-16T12:25:05.042Z,88.80
2018-09-16T12:27:33.854Z,84.20
2018-09-16T12:30:02.784Z,90.40
2018-09-16T12:32:31.784Z,92.00
2018-09-16T12:35:00.644Z,88.00
2018-09-16T12:37:29.503Z,88.30
2018-09-16T12:39:58.330Z,82.60
2018-09-16T12:42:27.079Z,89.30
2018-09-16T12:44:55.925Z,84.70
2018-09-16T12:47:24.543Z,84.60
2018-09-16T12:49:53.187Z,90.20
2018-09-16T12:52:21.779Z,90.70
2018-09-16T12:54:50.445Z,90.50
2018-09-16T12:57:19.070Z,83.10
2018-09-16T12:59:47.677Z,81.50
2018-09-16T13:02:16.263Z,83.70
2018-09-16T13:04:44.874Z,85.10
2018-09-16T13:07:13.469Z,83.20
2018-09-16T13:09:42.863Z,85.40
2018-09-16T13:12:11.459Z,87.70
2018-09-16T13:14:40.158Z,83.70
2018-09-16T13:17:08.838Z,81.90
2018-09-16T13:19:37.489Z,78.40
2018-09-16T13:22:06.467Z,83.60
2018-09-16T13:24:35.135Z,85.40
2018-09-16T13:27:03.816Z,77.60
2018-09-16T13:29:32.471Z,86.50
2018-09-16T13:32:01.303Z,86.30
2018-09-16T13:34:30.015Z,80.40
2018-09-16T13:36:58.748Z,83.90
2018-09-16T13:39:27.343Z,74.40
2018-09-16T13:41:55.983Z,77.40
2018-09-16T13:44:24.653Z,77.50
2018-09-16T13:46:53.345Z,81.80
2018-09-16T13:49:22.395Z,80.60
2018-09-16T13:51:51.000Z,81.80
2018-09-16T13:54:19.607Z,80.30
2018-09-16T13:56:48.224Z,81.90
2018-09-16T13:59:16.848Z,74.80
2018-09-16T14:01:45.408Z,81.60
2018-09-16T14:04:14.012Z,79.50
2018-09-16T14:06:42.587Z,85.00
2018-09-16T14:09:12.901Z,82.80
2018-09-16T14:11:41.879Z,84.90
2018-09-16T14:14:10.634Z,84.10
2018-09-16T14:16:39.736Z,78.00
2018-09-16T14:19:08.688Z,84.30
2018-09-16T14:21:37.255Z,79.90
2018-09-16T14:24:05.897Z,80.90
2018-09-16T14:26:34.607Z,83.40
2018-09-16T14:29:03.210Z,84.80
2018-09-16T14:31:32.080Z,79.70
2018-09-16T14:34:00.696Z,85.60
2018-09-16T14:36:29.301Z,83.20
2018-09-16T14:38:57.978Z,90.30
2018-09-16T14:41:26.695Z,85.00
2018-09-16T14:43:55.485Z,89.20
2018-09-16T14:46:24.201Z,83.80
2018-09-16T14:48:52.907Z,82.30
2018-09-16T14:51:21.734Z,83.60
2018-09-16T14:53:50.402Z,82.00
2018-09-16T14:56:19.138Z,82.80
2018-09-16T14:58:48.188Z,83.80
2018-09-16T15:01:17.072Z,79.40
2018-09-16T15:03:46.011Z,81.30
2018-09-16T15:06:14.922Z,87.30
2018-09-16T15:08:43.667Z,88.80
2018-09-16T15:11:12.834Z,87.10
2018-09-16T15:13:41.421Z,83.50
2018-09-16T15:16:10.277Z,84.40
2018-09-16T15:18:40.237Z,88.20
2018-09-16T15:21:15.575Z,83.50
2018-09-16T15:23:44.420Z,90.60
2018-09-16T15:26:13.157Z,86.90
2018-09-16T15:28:44.802Z,88.90
2018-09-16T15:31:13.563Z,94.60
2018-09-16T15:33:43.410Z,90.90
2018-09-16T15:36:12.090Z,96.70
2018-09-16T15:38:41.644Z,94.80
2018-09-16T15:41:15.071Z,96.40
2018-09-16T15:46:27.662Z,90.50
2018-09-16T15:48:56.315Z,91.40
2018-09-16T15:51:25.851Z,95.90
2018-09-16T15:53:55.612Z,96.80
2018-09-16T15:56:24.659Z,95.30
2018-09-16T15:58:53.404Z,95.50
2018-09-16T16:01:24.876Z,99.10
2018-09-16T16:03:53.890Z,99.90
2018-09-16T16:06:24.186Z,97.40
2018-09-16T16:08:52.918Z,97.30
2018-09-16T16:11:21.593Z,99.90
2018-09-16T16:13:50.361Z,99.90
2018-09-16T16:16:19.388Z,98.50
2018-09-16T16:18:48.040Z,99.90
2018-09-16T16:21:16.810Z,99.90
2018-09-16T16:23:45.662Z,99.90
2018-09-16T16:26:14.336Z,99.90
2018-09-16T16:28:43.028Z,99.90
2018-09-16T16:31:11.577Z,99.90
2018-09-16T16:33:40.290Z,99.90
2018-09-16T16:36:08.911Z,99.90
2018-09-16T16:38:37.571Z,99.90
2018-09-16T16:41:06.297Z,99.90
2018-09-16T16:43:34.907Z,99.90
2018-09-16T16:46:03.538Z,99.90
2018-09-16T16:48:32.138Z,99.40
2018-09-16T16:51:00.855Z,99.90
2018-09-16T16:53:29.493Z,99.90
2018-09-16T16:55:58.089Z,99.90
2018-09-16T16:58:26.695Z,99.90
2018-09-16T17:00:55.400Z,99.90
2018-09-16T17:03:23.971Z,99.90
2018-09-16T17:05:52.586Z,99.90
2018-09-16T17:08:21.254Z,99.90
2018-09-16T17:10:49.949Z,99.90
2018-09-16T17:13:18.805Z,99.90
2018-09-16T17:15:47.671Z,99.90
2018-09-16T17:18:21.837Z,99.90
2018-09-16T17:20:50.662Z,99.90
2018-09-16T17:23:19.696Z,99.90
2018-09-16T17:25:48.426Z,99.90
2018-09-16T17:28:17.193Z,99.90
2018-09-16T17:30:46.082Z,99.90
2018-09-16T17:33:14.941Z,99.90
2018-09-16T17:35:43.654Z,99.90
2018-09-16T17:38:13.768Z,99.90
2018-09-16T17:40:42.397Z,99.90
2018-09-16T17:43:11.073Z,99.90
2018-09-16T17:45:39.686Z,99.90
2018-09-16T17:48:08.311Z,99.90
2018-09-16T17:50:37.159Z,99.90
2018-09-16T17:53:05.859Z,99.90
2018-09-16T17:55:35.217Z,99.90
2018-09-16T17:58:04.401Z,99.90
2018-09-16T18:00:33.841Z,99.90
2018-09-16T18:03:02.721Z,99.90
2018-09-16T18:05:31.438Z,99.90
2018-09-16T18:08:00.476Z,99.90
2018-09-16T18:10:29.198Z,99.90
2018-09-16T18:12:57.783Z,99.90
2018-09-16T18:15:26.722Z,99.90
2018-09-16T18:17:55.425Z,99.90
2018-09-16T18:20:24.342Z,99.90
2018-09-16T18:22:52.931Z,99.90
2018-09-16T18:25:21.741Z,99.90
2018-09-16T18:27:51.091Z,99.90
2018-09-16T18:30:20.175Z,99.90
2018-09-16T18:32:49.136Z,99.90
2018-09-16T18:35:18.154Z,99.90
2018-09-16T18:37:47.126Z,99.90
2018-09-16T18:40:19.488Z,99.90
2018-09-16T18:42:51.696Z,99.90
2018-09-16T18:45:21.310Z,99.90
2018-09-16T18:47:50.016Z,99.90
2018-09-16T18:50:23.110Z,99.90
2018-09-16T18:52:51.784Z,99.90
2018-09-16T18:55:20.609Z,99.90
2018-09-16T18:57:49.369Z,99.90
2018-09-16T19:00:18.158Z,99.90
2018-09-16T19:02:47.066Z,99.90
2018-09-16T19:05:15.862Z,99.90
2018-09-16T19:07:44.696Z,99.90
2018-09-16T19:10:13.371Z,99.90
2018-09-16T19:12:42.108Z,99.90
2018-09-16T19:15:10.740Z,99.90
2018-09-16T19:17:40.406Z,99.90
2018-09-16T19:20:09.078Z,99.90
2018-09-16T19:22:41.385Z,99.90
2018-09-16T19:25:10.014Z,99.90
2018-09-16T19:27:38.661Z,99.90
2018-09-16T19:30:07.313Z,99.90
2018-09-16T19:32:35.934Z,99.90
2018-09-16T19:35:04.643Z,99.90
2018-09-16T19:37:35.513Z,99.90
2018-09-16T19:40:04.317Z,99.90
2018-09-16T19:42:32.974Z,99.90
2018-09-16T19:45:03.951Z,99.90
2018-09-16T19:47:32.652Z,99.90
2018-09-16T19:50:06.715Z,99.90
2018-09-16T19:52:35.470Z,99.90
2018-09-16T19:55:04.231Z,99.90
2018-09-16T19:57:32.920Z,99.90
2018-09-16T20:00:01.522Z,99.90
2018-09-16T20:02:30.238Z,99.90
2018-09-16T20:04:58.851Z,99.90
2018-09-16T20:07:27.482Z,99.90
2018-09-16T20:09:56.156Z,99.90
2018-09-16T20:12:24.852Z,99.90
2018-09-16T20:14:53.537Z,99.90
2018-09-16T20:17:22.302Z,99.90
2018-09-16T20:19:50.955Z,99.90
2018-09-16T20:22:19.664Z,99.90
2018-09-16T20:24:48.511Z,99.90
2018-09-16T20:27:17.411Z,99.90
2018-09-16T20:29:46.192Z,99.90
2018-09-16T20:32:14.887Z,99.90
2018-09-16T20:34:43.554Z,99.90
2018-09-16T20:37:12.262Z,99.90
2018-09-16T20:39:40.953Z,99.90
2018-09-16T20:42:09.555Z,99.90
2018-09-16T20:44:38.195Z,99.90
2018-09-16T20:47:06.801Z,99.90
2018-09-16T20:49:35.422Z,99.90
2018-09-16T20:52:04.074Z,99.90
2018-09-16T20:54:32.686Z,99.90
2018-09-16T20:57:01.378Z,99.90
2018-09-16T20:59:29.963Z,99.90
2018-09-16T21:01:58.553Z,99.90
2018-09-16T21:04:27.195Z,99.90
2018-09-16T21:06:55.784Z,99.90
2018-09-16T21:09:25.818Z,99.90
2018-09-16T21:11:54.430Z,99.90
2018-09-16T21:14:23.013Z,99.90
2018-09-16T21:16:51.628Z,99.90
2018-09-16T21:19:20.838Z,99.90
2018-09-16T21:21:49.507Z,99.90
2018-09-16T21:24:18.194Z,99.90
2018-09-16T21:26:46.880Z,99.90
2018-09-16T21:29:15.584Z,99.90
2018-09-16T21:31:44.229Z,99.90
2018-09-16T21:34:12.923Z,99.90
2018-09-16T21:36:42.134Z,99.90
2018-09-16T21:39:12.398Z,99.90
2018-09-16T21:41:41.001Z,99.90
2018-09-16T21:44:09.600Z,99.90
2018-09-16T21:46:38.224Z,99.90
2018-09-16T21:49:06.873Z,99.90
2018-09-16T21:51:35.590Z,99.90
2018-09-16T21:54:04.239Z,99.90
2018-09-16T21:56:32.830Z,99.90
2018-09-16T21:59:01.438Z,99.90
2018-09-16T22:01:30.019Z,99.90
2018-09-16T22:03:58.665Z,99.90
2018-09-16T22:06:27.246Z,99.90
2018-09-16T22:08:55.837Z,99.90
2018-09-16T22:11:24.409Z,99.90
2018-09-16T22:13:53.012Z,99.90
2018-09-16T22:16:22.173Z,99.90
2018-09-16T22:18:51.510Z,99.90
2018-09-16T22:21:20.143Z,99.90
2018-09-16T22:23:48.825Z,99.90
2018-09-16T22:26:17.452Z,99.90
2018-09-16T22:28:46.274Z,99.90
2018-09-16T22:31:14.922Z,99.90
2018-09-16T22:33:43.562Z,99.90
2018-09-16T22:36:12.180Z,99.90
2018-09-16T22:38:40.854Z,99.90
2018-09-16T22:41:09.534Z,99.90
2018-09-16T22:43:38.286Z,99.90
2018-09-16T22:46:06.993Z,99.90
2018-09-16T22:48:35.583Z,99.90
2018-09-16T22:51:04.329Z,99.90
2018-09-16T22:53:32.977Z,99.90
2018-09-16T22:56:01.638Z,99.90
2018-09-16T22:58:30.225Z,99.90
2018-09-16T23:00:58.853Z,99.90
2018-09-16T23:03:27.441Z,99.90
2018-09-16T23:05:56.046Z,99.90
2018-09-16T23:08:24.618Z,99.90
2018-09-16T23:10:53.208Z,99.90
2018-09-16T23:13:21.890Z,99.90
2018-09-16T23:15:50.689Z,99.90
2018-09-16T23:18:19.298Z,99.90
2018-09-16T23:20:48.005Z,99.90
2018-09-16T23:23:16.666Z,99.90
2018-09-16T23:25:45.587Z,99.90
2018-09-16T23:28:14.305Z,99.90
2018-09-16T23:30:42.992Z,99.90
2018-09-16T23:33:11.657Z,99.90
2018-09-16T23:35:40.280Z,99.90
2018-09-16T23:38:08.907Z,99.90
2018-09-16T23:40:37.483Z,99.90
2018-09-16T23:43:06.104Z,99.90
2018-09-16T23:45:34.755Z,99.90
2018-09-16T23:48:03.373Z,99.90
2018-09-16T23:50:31.991Z,99.90
2018-09-16T23:53:00.633Z,99.90
2018-09-16T23:55:29.210Z,99.90
2018-09-16T23:57:57.814Z,99.90
